Time;durP1;ratioP1;P1;durP2;ratioP2;P2;SDS_P1;SDS_P2;PMS_P1;PMS_P2;Temp;Humidity;BMP_temperature;BMP_pressure;BME280_temperature;BME280_humidity;BME280_pressure;Samples;Min_cycle;Max_cycle;Signal;HPM_P1;HPM_P2
2022/06/26 00:00:24;;;;;;;;;3.75;3.50;;;;;27.18;100.00;101382.28;5077047;28;51236;-59
2022/06/26 00:03:10;;;;;;;;;5.00;3.25;;;;;27.13;100.00;101362.59;5076760;28;51270;-59
2022/06/26 00:05:55;;;;;;;;;2.50;2.00;;;;;27.19;100.00;101362.19;5076824;28;51070;-58
2022/06/26 00:08:39;;;;;;;;;5.25;3.00;;;;;27.19;100.00;101347.69;5076610;28;51142;-59
2022/06/26 00:11:32;;;;;;;;;6.00;3.50;;;;;27.21;100.00;101362.97;5077108;28;51151;-59
2022/06/26 00:14:20;;;;;;;;;5.50;3.25;;;;;27.26;100.00;101354.50;5076604;28;51575;-59
2022/06/26 00:17:18;;;;;;;;;4.75;4.00;;;;;27.30;100.00;101355.16;5076051;28;51213;-59
2022/06/26 00:20:06;;;;;;;;;4.75;3.00;;;;;27.33;100.00;101350.38;5076392;28;51204;-58
2022/06/26 00:22:53;;;;;;;;;3.00;3.00;;;;;27.35;100.00;101345.69;5076553;28;51078;-60
2022/06/26 00:25:39;;;;;;;;;2.25;2.25;;;;;27.37;100.00;101346.47;5060765;28;51124;-60
2022/06/26 00:28:23;;;;;;;;;5.00;2.25;;;;;27.36;100.00;101339.25;5076688;28;51226;-59
2022/06/26 00:31:11;;;;;;;;;4.00;2.75;;;;;27.37;100.00;101338.28;5076178;28;51345;-59
2022/06/26 00:34:07;;;;;;;;;1.75;0.50;;;;;27.43;100.00;101338.84;5073255;28;51175;-58
2022/06/26 00:36:54;;;;;;;;;5.50;1.75;;;;;27.45;100.00;101334.19;5047724;28;51053;-59
2022/06/26 00:39:39;;;;;;;;;4.25;3.00;;;;;27.44;100.00;101349.72;5062201;28;51418;-59
2022/06/26 00:42:25;;;;;;;;;3.75;3.00;;;;;27.44;100.00;101333.31;5047047;28;51213;-58
2022/06/26 00:45:10;;;;;;;;;4.50;2.25;;;;;27.44;100.00;101324.22;5046966;28;51140;-59
2022/06/26 00:47:59;;;;;;;;;3.00;2.25;;;;;27.45;100.00;101315.06;5047495;28;51205;-59
2022/06/26 00:50:48;;;;;;;;;2.25;2.25;;;;;27.45;100.00;101313.22;5062002;28;51174;-58
2022/06/26 00:53:46;;;;;;;;;4.25;3.00;;;;;27.43;100.00;101304.19;5047510;28;51078;-58
2022/06/26 00:56:30;;;;;;;;;2.25;2.25;;;;;27.44;100.00;101299.63;5062454;28;51413;-59
2022/06/26 00:59:17;;;;;;;;;2.75;2.00;;;;;27.41;100.00;101291.63;5061924;28;51121;-59
2022/06/26 01:02:09;;;;;;;;;2.75;2.75;;;;;27.46;100.00;101289.47;5062252;28;51095;-58
2022/06/26 01:05:16;;;;;;;;;5.00;2.00;;;;;27.47;100.00;101291.25;5046631;28;51265;-59
2022/06/26 01:08:04;;;;;;;;;5.25;3.25;;;;;27.53;100.00;101283.50;5061811;28;51004;-58
2022/06/26 01:10:50;;;;;;;;;4.25;3.75;;;;;27.58;100.00;101282.31;5062198;28;51586;-58
2022/06/26 01:13:43;;;;;;;;;6.25;3.25;;;;;27.61;100.00;101287.56;5046845;28;51165;-58
2022/06/26 01:16:42;;;;;;;;;6.75;5.00;;;;;27.62;100.00;101284.72;5061905;28;51449;-58
2022/06/26 01:19:49;;;;;;;;;9.50;6.50;;;;;27.63;100.00;101286.50;5061986;28;51303;-58
2022/06/26 01:22:37;;;;;;;;;10.25;5.75;;;;;27.62;100.00;101276.53;5061259;28;51314;-59
2022/06/26 01:25:24;;;;;;;;;6.75;5.50;;;;;27.61;100.00;101280.28;5061718;28;51185;-58
2022/06/26 01:28:13;;;;;;;;;7.00;4.00;;;;;27.61;100.00;101271.19;5061459;28;51299;-58
2022/06/26 01:30:59;;;;;;;;;6.75;3.75;;;;;27.63;100.00;101277.44;5061593;28;51340;-58
2022/06/26 01:33:49;;;;;;;;;5.25;4.50;;;;;27.62;100.00;101275.66;5045963;28;51183;-58
2022/06/26 01:36:35;;;;;;;;;5.00;4.25;;;;;27.63;100.00;101278.28;5061460;28;51052;-59
2022/06/26 01:39:25;;;;;;;;;8.25;6.00;;;;;27.64;100.00;101280.03;5061363;28;51184;-58
2022/06/26 01:42:13;;;;;;;;;8.50;5.00;;;;;27.64;100.00;101276.44;5060843;28;51160;-59
2022/06/26 01:45:23;;;;;;;;;9.50;4.25;;;;;27.65;100.00;101275.47;5046096;28;51270;-58
2022/06/26 01:48:09;;;;;;;;;7.00;5.00;;;;;27.66;100.00;101269.03;5060602;28;51559;-60
2022/06/26 01:51:03;;;;;;;;;7.00;5.25;;;;;27.66;100.00;101264.41;5060952;28;51193;-59
2022/06/26 01:53:57;;;;;;;;;5.00;2.25;;;;;27.65;100.00;101256.34;5058832;28;51157;-59
2022/06/26 01:56:43;;;;;;;;;5.00;5.00;;;;;27.59;100.00;101254.91;5061161;28;51529;-58
2022/06/26 01:59:30;;;;;;;;;10.00;5.00;;;;;27.64;100.00;101262.78;5060974;28;51062;-58
2022/06/26 02:02:22;;;;;;;;;7.25;3.50;;;;;27.63;100.00;101264.63;5061113;28;51425;-59
2022/06/26 02:05:20;;;;;;;;;4.50;4.50;;;;;27.63;100.00;101264.63;5061016;28;51204;-59
2022/06/26 02:08:25;;;;;;;;;8.50;4.25;;;;;27.61;100.00;101252.94;5060690;28;51222;-59
2022/06/26 02:14:16;;;;;;;;;11.50;5.00;;;;;27.61;100.00;101258.41;5060572;28;51407;-59
2022/06/26 02:17:04;;;;;;;;;5.00;4.00;;;;;27.63;100.00;101258.28;5060514;28;51145;-58
2022/06/26 02:19:54;;;;;;;;;8.00;5.25;;;;;27.64;100.00;101274.56;5055833;28;51107;-59
2022/06/26 02:22:56;;;;;;;;;4.75;4.75;;;;;27.67;100.00;101279.84;5045136;28;51079;-59
2022/06/26 02:26:08;;;;;;;;;6.75;6.75;;;;;27.69;100.00;101279.72;5060556;28;51099;-58
2022/06/26 02:29:05;;;;;;;;;7.25;7.25;;;;;27.70;100.00;101270.56;5060302;28;51079;-58
2022/06/26 02:31:56;;;;;;;;;12.00;7.00;;;;;27.57;100.00;101259.56;5060829;28;51127;-59
2022/06/26 02:34:42;;;;;;;;;7.25;7.25;;;;;27.71;100.00;101274.19;5059758;28;51520;-59
2022/06/26 02:37:30;;;;;;;;;8.75;7.00;;;;;27.73;100.00;101284.03;5060267;28;51069;-59
2022/06/26 02:40:20;;;;;;;;;8.75;7.00;;;;;27.74;100.00;101282.16;5060121;28;51466;-58
2022/06/26 02:43:07;;;;;;;;;8.00;8.00;;;;;27.74;100.00;101284.88;5059737;28;51104;-58
2022/06/26 02:45:53;;;;;;;;;7.00;7.00;;;;;27.75;100.00;101294.84;5060514;28;51154;-58
2022/06/26 02:48:41;;;;;;;;;10.00;7.25;;;;;27.75;100.00;101284.81;5059590;28;51163;-59
2022/06/26 02:51:28;;;;;;;;;9.75;9.25;;;;;27.73;100.00;101280.41;5059346;28;51147;-59
2022/06/26 02:54:14;;;;;;;;;18.75;13.75;;;;;27.75;100.00;101282.06;5059995;28;51083;-58
2022/06/26 02:57:00;;;;;;;;;22.00;19.25;;;;;27.76;100.00;101285.66;5060207;28;51172;-59
2022/06/26 02:59:47;;;;;;;;;26.50;22.75;;;;;27.73;100.00;101273.09;5059447;28;51114;-59
2022/06/26 03:02:32;;;;;;;;;31.75;22.25;;;;;27.70;100.00;101272.41;5059976;28;51076;-59
2022/06/26 03:05:18;;;;;;;;;23.25;21.25;;;;;27.71;100.00;101285.13;5059789;28;51082;-58
2022/06/26 03:08:05;;;;;;;;;28.75;28.75;;;;;27.68;100.00;101278.88;5059872;28;51228;-59
2022/06/26 03:10:52;;;;;;;;;30.75;23.75;;;;;27.67;100.00;101279.84;5059907;28;51184;-59
2022/06/26 03:13:48;;;;;;;;;20.25;17.50;;;;;27.66;100.00;101280.81;5059409;28;51249;-58
2022/06/26 03:16:34;;;;;;;;;18.00;16.25;;;;;27.63;100.00;101281.03;5059612;28;51159;-59
2022/06/26 03:19:22;;;;;;;;;23.50;20.75;;;;;27.65;100.00;101279.06;5059509;28;51091;-59
2022/06/26 03:22:14;;;;;;;;;21.00;17.00;;;;;27.64;100.00;101284.66;5045129;28;51139;-59
2022/06/26 03:24:59;;;;;;;;;20.25;17.25;;;;;27.64;100.00;101281.91;5059467;28;51083;-58
2022/06/26 03:27:47;;;;;;;;;17.25;17.00;;;;;27.64;100.00;101287.38;5059486;28;51160;-59
2022/06/26 03:30:43;;;;;;;;;17.75;16.75;;;;;27.64;100.00;101285.50;5059322;28;51401;-58
2022/06/26 03:33:50;;;;;;;;;15.50;13.75;;;;;27.63;100.00;101285.63;5059155;28;51155;-58
2022/06/26 03:36:35;;;;;;;;;20.75;13.00;;;;;27.62;100.00;101283.88;5059833;28;51192;-58
2022/06/26 03:39:52;;;;;;;;;19.25;15.50;;;;;27.66;100.00;101282.69;5029958;28;51103;-58
2022/06/26 03:42:39;;;;;;;;;14.50;13.50;;;;;27.66;100.00;101272.63;5059452;28;51104;-58
2022/06/26 03:45:38;;;;;;;;;15.75;11.50;;;;;27.65;100.00;101275.47;5059495;28;51140;-59
2022/06/26 03:48:25;;;;;;;;;13.50;12.00;;;;;27.63;100.00;101274.69;5059708;28;51024;-59
2022/06/26 03:51:12;;;;;;;;;21.25;13.00;;;;;27.56;100.00;101266.03;5059261;28;51459;-59
2022/06/26 03:53:57;;;;;;;;;14.75;13.00;;;;;27.56;100.00;101268.75;5059285;28;51081;-58
2022/06/26 03:56:48;;;;;;;;;14.25;13.25;;;;;27.57;100.00;101267.78;5058819;28;51545;-59
2022/06/26 03:59:36;;;;;;;;;13.00;9.75;;;;;27.58;100.00;101276.84;5059169;28;51120;-58
2022/06/26 04:02:27;;;;;;;;;11.75;10.50;;;;;27.55;100.00;101277.94;5059370;28;51172;-59
2022/06/26 04:05:13;;;;;;;;;11.00;8.50;;;;;27.54;100.00;101276.19;5058982;28;51536;-59
2022/06/26 04:08:02;;;;;;;;;10.50;9.25;;;;;27.53;100.00;101274.41;5059085;28;51185;-58
2022/06/26 04:10:50;;;;;;;;;10.00;8.25;;;;;27.50;100.00;101270.03;5061557;28;51287;-59
2022/06/26 04:13:37;;;;;;;;;8.00;7.75;;;;;27.52;100.00;101261.72;5048453;28;51114;-60
2022/06/26 04:16:24;;;;;;;;;13.00;7.75;;;;;27.50;100.00;101267.31;5062979;28;51095;-59
2022/06/26 04:19:13;;;;;;;;;11.00;11.00;;;;;27.48;100.00;101269.25;5063057;28;51035;-59
2022/06/26 04:22:08;;;;;;;;;19.50;15.75;;;;;27.49;100.00;101278.34;5062580;28;51566;-58
2022/06/26 04:25:06;;;;;;;;;11.00;9.00;;;;;27.47;100.00;101277.56;5062311;28;51051;-58
2022/06/26 04:27:55;;;;;;;;;11.00;8.25;;;;;27.47;100.00;101277.56;5062825;28;51270;-58
2022/06/26 04:30:46;;;;;;;;;10.00;10.00;;;;;27.49;100.00;101272.88;5062108;28;51597;-59
2022/06/26 04:37:51;;;;;;;;;13.00;10.25;;;;;27.52;100.00;101278.13;5059026;28;51190;-58
2022/06/26 04:40:39;;;;;;;;;15.25;10.00;;;;;27.51;100.00;101274.53;5060752;28;51165;-59
2022/06/26 04:43:25;;;;;;;;;14.00;11.25;;;;;27.48;100.00;101269.25;5062230;28;51187;-59
2022/06/26 04:46:16;;;;;;;;;10.75;9.75;;;;;27.49;100.00;101276.50;5062169;28;51170;-58
2022/06/26 04:49:00;;;;;;;;;12.50;9.50;;;;;27.46;100.00;101279.41;5061841;28;51084;-58
2022/06/26 04:51:57;;;;;;;;;10.50;9.00;;;;;27.43;100.00;101279.59;5062126;28;51288;-59
2022/06/26 04:54:43;;;;;;;;;12.25;9.50;;;;;27.40;100.00;101289.88;5062383;28;51148;-59
2022/06/26 04:57:35;;;;;;;;;12.75;11.25;;;;;27.36;100.00;101287.34;5062125;28;51159;-58
2022/06/26 05:00:28;;;;;;;;;9.00;9.00;;;;;27.34;100.00;101282.97;5062362;28;51653;-59
2022/06/26 05:03:13;;;;;;;;;16.25;7.75;;;;;27.33;100.00;101287.53;5061589;28;51175;-58
2022/06/26 05:05:58;;;;;;;;;10.75;10.25;;;;;27.31;100.00;101294.94;5062233;28;51115;-58
2022/06/26 05:08:43;;;;;;;;;15.00;11.75;;;;;27.29;100.00;101298.75;5061808;28;51524;-59
2022/06/26 05:11:33;;;;;;;;;10.50;9.75;;;;;27.27;100.00;101296.13;5046781;28;51029;-59
2022/06/26 05:14:23;;;;;;;;;11.00;10.00;;;;;27.27;100.00;101304.34;5061901;28;51451;-60
2022/06/26 05:17:13;;;;;;;;;8.50;8.50;;;;;27.25;100.00;101295.34;5061788;28;51146;-59
2022/06/26 05:19:57;;;;;;;;;14.50;12.25;;;;;27.26;100.00;101297.13;5046953;28;51076;-59
2022/06/26 05:22:54;;;;;;;;;14.50;13.75;;;;;27.26;100.00;101297.13;5061415;28;51182;-59
2022/06/26 05:25:41;;;;;;;;;20.50;19.25;;;;;27.28;100.00;101305.19;5061340;28;51161;-60
2022/06/26 05:28:29;;;;;;;;;44.50;32.50;;;;;27.29;100.00;101305.13;5056552;28;51374;-59
2022/06/26 05:31:17;;;;;;;;;41.75;31.75;;;;;27.31;100.00;101305.00;5061719;28;51355;-59
2022/06/26 05:34:03;;;;;;;;;42.50;31.50;;;;;27.32;100.00;101302.16;5060756;28;51170;-60
2022/06/26 05:36:48;;;;;;;;;52.75;41.00;;;;;27.33;100.00;101309.38;5061365;28;51174;-59
2022/06/26 05:39:41;;;;;;;;;63.00;50.00;;;;;27.33;100.00;101312.13;5061336;28;51611;-59
2022/06/26 05:42:27;;;;;;;;;61.00;49.00;;;;;27.32;100.00;101324.03;5061169;28;51169;-59
2022/06/26 05:45:12;;;;;;;;;61.50;49.50;;;;;27.33;100.00;101319.44;5061423;28;51173;-58
2022/06/26 05:47:58;;;;;;;;;62.00;48.25;;;;;27.35;100.00;101323.81;5061110;28;51347;-59
2022/06/26 05:50:46;;;;;;;;;52.25;43.25;;;;;27.37;100.00;101327.34;5061068;28;51601;-59
2022/06/26 05:53:32;;;;;;;;;48.75;38.75;;;;;27.40;100.00;101326.25;5060878;28;51144;-59
2022/06/26 05:56:19;;;;;;;;;46.25;38.75;;;;;27.41;100.00;101330.75;5061062;28;51201;-58
2022/06/26 05:59:05;;;;;;;;;46.50;38.00;;;;;27.42;100.00;101332.50;5060703;28;51437;-59
2022/06/26 06:01:54;;;;;;;;;56.00;40.25;;;;;27.46;100.00;101338.69;5060944;28;51140;-60
2022/06/26 06:04:40;;;;;;;;;44.25;34.00;;;;;27.47;100.00;101341.28;5059626;28;51113;-59
2022/06/26 06:07:25;;;;;;;;;28.25;28.25;;;;;27.49;100.00;101341.22;5060022;28;51190;-58
2022/06/26 06:10:15;;;;;;;;;33.50;26.25;;;;;27.53;100.00;101345.47;5060785;28;51102;-58
2022/06/26 06:13:01;;;;;;;;;27.50;25.50;;;;;27.55;100.00;101343.53;5060553;28;51469;-59
2022/06/26 06:16:08;;;;;;;;;31.00;29.25;;;;;27.59;100.00;101344.19;5061046;28;51479;-59
2022/06/26 06:19:02;;;;;;;;;33.75;30.00;;;;;27.63;100.00;101345.75;5060316;28;51100;-58
2022/06/26 06:21:47;;;;;;;;;45.00;34.75;;;;;27.66;100.00;101351.91;5060795;28;51465;-59
2022/06/26 06:24:35;;;;;;;;;42.25;33.75;;;;;27.70;100.00;101347.09;5060417;28;52057;-58
2022/06/26 06:27:33;;;;;;;;;29.25;27.75;;;;;27.73;100.00;101356.94;5058418;28;51173;-57
2022/06/26 06:30:21;;;;;;;;;32.75;27.25;;;;;27.76;100.00;101359.50;5060233;28;51156;-59
2022/06/26 06:33:08;;;;;;;;;31.75;29.00;;;;;27.79;100.00;101373.81;5059611;28;50996;-58
2022/06/26 06:36:03;;;;;;;;;35.00;28.50;;;;;27.83;100.00;101378.13;5060192;28;51372;-59
2022/06/26 06:38:59;;;;;;;;;32.75;30.50;;;;;27.90;100.00;101377.69;5029242;28;51081;-58
2022/06/26 06:41:45;;;;;;;;;32.75;28.50;;;;;27.91;100.00;101383.09;5060544;28;51649;-59
2022/06/26 06:44:51;;;;;;;;;25.75;22.50;;;;;27.98;100.00;101391.75;5044396;28;51126;-58
2022/06/26 06:47:36;;;;;;;;;27.75;22.75;;;;;28.03;100.00;101402.38;5060224;28;51115;-59
2022/06/26 06:50:22;;;;;;;;;29.00;23.25;;;;;28.05;100.00;101406.78;5059632;28;51186;-58
2022/06/26 06:53:07;;;;;;;;;23.25;19.75;;;;;28.07;100.00;101417.59;5059886;28;51190;-58
2022/06/26 06:55:52;;;;;;;;;34.25;29.00;;;;;28.10;100.00;101428.38;5059983;28;51586;-58
2022/06/26 06:58:42;;;;;;;;;30.25;26.00;;;;;28.12;100.00;101432.75;5059784;28;51107;-58
2022/06/26 07:01:35;;;;;;;;;31.00;26.25;;;;;28.14;100.00;101440.88;5059969;28;51233;-60
2022/06/26 07:04:24;;;;;;;;;31.25;28.00;;;;;28.17;100.00;101448.88;5059385;28;51190;-60
2022/06/26 07:07:20;;;;;;;;;35.00;30.50;;;;;28.18;100.00;101449.75;5059847;28;51266;-59
2022/06/26 07:10:15;;;;;;;;;36.50;31.25;;;;;28.19;100.00;101443.31;5059173;28;51177;-59
2022/06/26 07:13:01;;;;;;;;;35.75;28.75;;;;;28.21;100.00;101452.25;5059878;28;51102;-59
2022/06/26 07:15:51;;;;;;;;;33.50;27.00;;;;;28.21;100.00;101453.16;5059851;28;51350;-58
2022/06/26 07:18:47;;;;;;;;;33.50;30.00;;;;;28.24;100.00;101463.91;5059661;28;51269;-58
2022/06/26 07:21:56;;;;;;;;;32.75;29.00;;;;;28.20;100.00;101456.88;5059440;28;51111;-58
2022/06/26 07:24:46;;;;;;;;;29.00;26.25;;;;;28.25;100.00;101476.63;5059076;28;51178;-59
2022/06/26 07:27:32;;;;;;;;;30.75;27.75;;;;;28.27;100.00;101474.63;5059589;28;51090;-58
2022/06/26 07:30:21;;;;;;;;;30.75;28.75;;;;;28.30;100.00;101471.69;5059454;28;51174;-59
2022/06/26 07:34:12;;;;;;;;;34.00;27.50;;;;;28.33;100.00;101469.72;5059422;28;51503;-58
2022/06/26 07:36:33;;;;;;;;;36.25;31.50;;;;;28.38;100.00;101475.75;5056599;28;51194;-59
2022/06/26 07:39:39;;;;;;;;;45.25;32.75;;;;;28.39;100.00;101467.47;5059471;28;51159;-59
2022/06/26 07:42:24;;;;;;;;;39.00;32.25;;;;;28.42;100.00;101489.13;5059101;28;51156;-59
2022/06/26 07:45:15;;;;;;;;;39.25;34.25;;;;;28.42;100.00;101496.47;5061245;28;51254;-58
2022/06/26 07:48:04;;;;;;;;;47.25;37.25;;;;;28.43;100.00;101506.44;5063528;28;51188;-58
2022/06/26 07:51:32;;;;;;;;;41.50;34.75;;;;;28.46;100.00;101500.78;5063405;28;51087;-59
2022/06/26 07:54:19;;;;;;;;;43.25;36.00;;;;;28.44;100.00;101498.13;5063623;28;51091;-58
2022/06/26 07:57:19;;;;;;;;;46.75;36.75;;;;;28.52;100.00;101511.28;5063249;28;51024;-59
2022/06/26 08:00:05;;;;;;;;;41.00;32.75;;;;;28.51;100.00;101517.75;5063039;28;51159;-60
2022/06/26 08:02:50;;;;;;;;;45.50;36.50;;;;;28.52;100.00;101511.28;5062908;28;51141;-59
2022/06/26 08:05:46;;;;;;;;;45.75;38.25;;;;;28.55;100.00;101502.00;5063051;28;51029;-59
2022/06/26 08:08:35;;;;;;;;;44.75;37.00;;;;;28.60;100.00;101497.09;5062677;28;51467;-59
2022/06/26 08:11:22;;;;;;;;;47.75;37.50;;;;;28.58;100.00;101479.88;5062903;28;51191;-59
2022/06/26 08:14:12;;;;;;;;;47.00;39.00;;;;;28.64;100.00;101503.22;5062938;28;51017;-59
2022/06/26 08:16:59;;;;;;;;;49.50;40.00;;;;;28.63;100.00;101505.06;5062897;28;51067;-59
2022/06/26 08:19:48;;;;;;;;;47.25;38.50;;;;;28.62;100.00;101506.09;5062939;28;51184;-59
2022/06/26 08:22:39;;;;;;;;;62.00;49.25;;;;;28.72;100.00;101503.63;5062781;28;52637;-59
2022/06/26 08:25:27;;;;;;;;;50.00;39.25;;;;;28.74;100.00;101512.59;5062647;28;51654;-59
2022/06/26 08:28:25;;;;;;;;;53.75;42.25;;;;;28.78;100.00;101511.44;5062513;28;51186;-59
2022/06/26 08:31:15;;;;;;;;;42.00;34.00;;;;;28.80;100.00;101520.38;5056857;28;51079;-59
2022/06/26 08:34:00;;;;;;;;;45.75;36.00;;;;;28.82;100.00;101515.69;5062405;28;51099;-60
2022/06/26 08:36:45;;;;;;;;;50.50;39.25;;;;;28.83;100.00;101530.28;5062032;28;51170;-59
2022/06/26 08:39:59;;;;;;;;;46.25;35.25;;;;;28.83;100.00;101535.75;5047247;28;51202;-58
2022/06/26 08:42:49;;;;;;;;;17.25;17.25;;;;;28.82;100.00;101532.13;5061851;28;51095;-58
2022/06/26 08:45:54;;;;;;;;;28.25;22.25;;;;;28.81;100.00;101538.56;5048777;28;51188;-58
2022/06/26 08:48:50;;;;;;;;;24.50;21.25;;;;;28.83;100.00;101541.25;5061951;28;51274;-58
2022/06/26 08:51:40;;;;;;;;;28.50;23.00;;;;;28.85;100.00;101547.47;5062682;28;51918;-57
2022/06/26 08:54:28;;;;;;;;;26.25;19.25;;;;;28.88;100.00;101544.53;5046719;28;51160;-58
2022/06/26 08:57:16;;;;;;;;;28.00;26.00;;;;;28.91;100.00;101547.06;5062182;28;51182;-59
2022/06/26 09:00:05;;;;;;;;;27.00;24.00;;;;;28.91;100.00;101550.66;5060879;28;51338;-58
2022/06/26 09:02:53;;;;;;;;;28.25;26.25;;;;;28.92;100.00;101546.94;5061743;28;51167;-58
2022/06/26 09:05:38;;;;;;;;;30.00;27.50;;;;;28.94;100.00;101548.69;5062094;28;51369;-59
2022/06/26 09:08:35;;;;;;;;;27.00;24.25;;;;;28.93;100.00;101539.63;5046504;28;51055;-59
2022/06/26 09:11:39;;;;;;;;;29.50;28.25;;;;;28.95;100.00;101539.50;5062214;28;51107;-57
2022/06/26 09:14:25;;;;;;;;;27.25;25.00;;;;;29.00;100.00;101534.56;5061951;28;51274;-59
2022/06/26 09:17:16;;;;;;;;;34.50;26.25;;;;;29.05;100.00;101529.66;5046652;28;51440;-58
2022/06/26 09:20:11;;;;;;;;;31.50;24.50;;;;;29.15;100.00;101530.78;5061372;28;51176;-59
2022/06/26 09:23:01;;;;;;;;;22.00;19.50;;;;;29.25;100.00;101531.00;5061860;28;51115;-58
2022/06/26 09:25:52;;;;;;;;;24.50;21.50;;;;;29.31;100.00;101524.22;5061362;28;51359;-59
2022/06/26 09:28:37;;;;;;;;;27.00;20.25;;;;;29.36;100.00;101524.78;5061285;28;51086;-59
2022/06/26 09:31:35;;;;;;;;;21.25;20.00;;;;;29.25;100.00;101516.41;5061358;28;51469;-59
2022/06/26 09:34:24;;;;;;;;;16.50;12.50;;;;;29.21;100.00;101532.19;5061207;28;51193;-59
2022/06/26 09:37:10;;;;;;;;;15.50;14.00;;;;;28.98;100.00;101533.81;5061368;28;51073;-60
2022/06/26 09:40:05;;;;;;;;;12.00;9.75;;;;;28.62;100.00;101530.72;5061388;28;51203;-58
2022/06/26 09:42:51;;;;;;;;;10.25;9.25;;;;;28.41;100.00;101536.63;5061052;28;51200;-60
2022/06/26 09:46:05;;;;;;;;;9.00;8.50;;;;;28.29;100.00;101542.97;5058074;28;51079;-59
2022/06/26 09:48:57;;;;;;;;;8.25;7.00;;;;;28.19;100.00;101537.19;5054422;28;51051;-58
2022/06/26 09:51:55;;;;;;;;;11.25;9.75;;;;;28.13;100.00;101545.81;5046101;28;51208;-58
2022/06/26 09:54:42;;;;;;;;;11.75;6.25;;;;;28.03;100.00;101544.63;5056796;28;51160;-59
2022/06/26 09:57:31;;;;;;;;;8.25;5.00;;;;;27.88;100.00;101546.50;5059749;28;51135;-59
2022/06/26 10:00:17;;;;;;;;;11.25;5.25;;;;;27.81;100.00;101551.47;5059616;28;51143;-58
2022/06/26 10:06:25;;;;;;;;;7.50;4.50;;;;;27.74;100.00;101547.38;5060652;28;51191;-60
2022/06/26 10:09:11;;;;;;;;;8.25;5.25;;;;;27.59;100.00;101525.50;5060391;28;51477;-59
2022/06/26 10:12:13;;;;;;;;;7.00;6.00;;;;;27.53;100.00;101547.75;5060930;28;51234;-57
2022/06/26 10:15:06;;;;;;;;;10.50;8.00;;;;;27.40;100.00;101552.22;5060784;28;51064;-58
2022/06/26 10:17:56;;;;;;;;;9.00;6.25;;;;;27.33;100.00;101548.97;5045426;28;51460;-58
2022/06/26 10:20:42;;;;;;;;;10.00;6.25;;;;;27.29;100.00;101547.41;5060378;28;51193;-58
2022/06/26 10:23:32;;;;;;;;;9.25;6.50;;;;;27.24;100.00;101544.09;5060885;28;51327;-59
2022/06/26 10:26:22;;;;;;;;;7.00;6.00;;;;;27.20;100.00;101546.09;5059765;28;51168;-59
2022/06/26 10:29:12;;;;;;;;;11.25;9.75;;;;;27.17;100.00;101547.16;5060174;28;51177;-58
2022/06/26 10:32:01;;;;;;;;;10.50;10.00;;;;;27.10;100.00;101539.44;5045395;28;51094;-59
2022/06/26 10:34:58;;;;;;;;;12.25;8.75;;;;;27.03;100.00;101536.22;5060169;28;51417;-58
2022/06/26 10:37:48;;;;;;;;;10.00;8.25;;;;;26.96;100.00;101522.06;5060047;28;51036;-59
2022/06/26 10:44:01;;;;;;;;;12.25;8.50;;;;;26.84;100.00;101526.41;5033818;28;51462;-59
2022/06/26 10:46:49;;;;;;;;;8.00;8.00;;;;;26.80;100.00;101518.47;5059963;28;51170;-59
2022/06/26 10:49:33;;;;;;;;;10.25;8.50;;;;;26.84;100.00;101526.41;5060339;28;51265;-58
2022/06/26 10:52:25;;;;;;;;;9.25;6.00;;;;;26.84;100.00;101529.13;5059596;28;51320;-58
2022/06/26 10:55:15;;;;;;;;;12.00;8.75;;;;;26.94;100.00;101542.22;5058516;28;51029;-58
2022/06/26 10:58:27;;;;;;;;;7.50;7.25;;;;;26.97;100.00;101540.22;5043403;28;51271;-59
2022/06/26 11:01:20;;;;;;;;;12.25;10.75;;;;;27.04;100.00;101555.25;5032532;28;51536;-59
2022/06/26 11:04:09;;;;;;;;;11.25;9.50;;;;;27.04;100.00;101554.34;5042397;28;51204;-58
2022/06/26 11:06:57;;;;;;;;;13.75;12.00;;;;;27.00;100.00;101575.50;5054337;28;51185;-60
2022/06/26 11:09:46;;;;;;;;;17.75;13.25;;;;;26.91;100.00;101587.88;5058628;28;51500;-59
2022/06/26 11:12:43;;;;;;;;;13.25;12.00;;;;;26.82;100.00;101590.25;5058307;28;51266;-59
2022/06/26 11:15:33;;;;;;;;;20.75;16.25;;;;;26.67;100.00;101601.06;5044730;28;51495;-59
2022/06/26 11:18:30;;;;;;;;;23.75;21.25;;;;;26.56;100.00;101609.03;5059044;28;51244;-58
2022/06/26 11:21:15;;;;;;;;;27.50;24.25;;;;;26.47;100.00;101631.34;5058884;28;51242;-57
2022/06/26 11:24:08;;;;;;;;;18.25;17.75;;;;;26.32;100.00;101627.66;5058783;28;51154;-58
2022/06/26 11:26:55;;;;;;;;;11.50;11.25;;;;;26.14;100.00;101625.88;5059079;28;51532;-59
2022/06/26 11:29:42;;;;;;;;;18.50;17.00;;;;;26.06;100.00;101611.75;5050133;28;51255;-59
2022/06/26 11:32:28;;;;;;;;;19.75;15.25;;;;;25.97;100.00;101602.25;5035280;28;51857;-58
2022/06/26 11:35:40;;;;;;;;;17.50;17.50;;;;;25.88;100.00;101588.22;5054763;28;51191;-57
2022/06/26 11:38:25;;;;;;;;;53.00;42.25;;;;;25.86;100.00;101595.59;5034950;28;51193;-59
2022/06/26 11:41:14;;;;;;;;;42.25;37.00;;;;;25.77;100.00;101586.97;5035480;28;52220;-59
2022/06/26 11:44:01;;;;;;;;;53.00;44.25;;;;;25.70;100.00;101580.09;5039019;28;51050;-58
2022/06/26 19:00:19;;;;;;;;;15.75;14.75;;;;;26.04;100.00;101248.25;4355283;32;51281;-59
